sensor_id;sensor_type;location;lat;lon;timestamp;temperature;humidity
71047;SHT31;58703;48.978;8.982;2022-08-11T00:00:11;14.80;64.51
71047;SHT31;58703;48.978;8.982;2022-08-11T00:02:40;14.87;63.94
71047;SHT31;58703;48.978;8.982;2022-08-11T00:05:12;14.95;63.27
71047;SHT31;58703;48.978;8.982;2022-08-11T00:07:44;14.98;62.22
71047;SHT31;58703;48.978;8.982;2022-08-11T00:10:16;14.98;63.85
71047;SHT31;58703;48.978;8.982;2022-08-11T00:12:43;14.83;64.22
71047;SHT31;58703;48.978;8.982;2022-08-11T00:15:14;14.79;64.19
71047;SHT31;58703;48.978;8.982;2022-08-11T00:17:40;14.56;65.01
71047;SHT31;58703;48.978;8.982;2022-08-11T00:20:10;14.43;66.09
71047;SHT31;58703;48.978;8.982;2022-08-11T00:22:41;14.32;65.76
71047;SHT31;58703;48.978;8.982;2022-08-11T00:25:16;14.36;64.53
71047;SHT31;58703;48.978;8.982;2022-08-11T00:27:43;14.21;66.59
71047;SHT31;58703;48.978;8.982;2022-08-11T00:30:10;14.39;66.17
71047;SHT31;58703;48.978;8.982;2022-08-11T00:32:37;14.44;65.85
71047;SHT31;58703;48.978;8.982;2022-08-11T00:35:06;14.55;65.29
71047;SHT31;58703;48.978;8.982;2022-08-11T00:37:33;14.40;65.86
71047;SHT31;58703;48.978;8.982;2022-08-11T00:40:01;14.28;65.87
71047;SHT31;58703;48.978;8.982;2022-08-11T00:45:50;14.22;66.56
71047;SHT31;58703;48.978;8.982;2022-08-11T00:48:36;14.28;64.50
71047;SHT31;58703;48.978;8.982;2022-08-11T00:51:32;14.32;66.27
71047;SHT31;58703;48.978;8.982;2022-08-11T01:05:33;13.94;68.22
71047;SHT31;58703;48.978;8.982;2022-08-11T01:08:35;13.97;68.04
71047;SHT31;58703;48.978;8.982;2022-08-11T01:17:08;13.68;68.59
71047;SHT31;58703;48.978;8.982;2022-08-11T01:20:08;13.64;69.73
71047;SHT31;58703;48.978;8.982;2022-08-11T01:25:47;13.33;69.95
71047;SHT31;58703;48.978;8.982;2022-08-11T01:31:46;13.28;70.36
71047;SHT31;58703;48.978;8.982;2022-08-11T01:46:04;12.96;71.84
71047;SHT31;58703;48.978;8.982;2022-08-11T01:48:40;12.90;72.48
71047;SHT31;58703;48.978;8.982;2022-08-11T01:51:14;12.93;72.44
71047;SHT31;58703;48.978;8.982;2022-08-11T01:53:56;12.82;73.28
71047;SHT31;58703;48.978;8.982;2022-08-11T01:59:25;12.79;73.10
71047;SHT31;58703;48.978;8.982;2022-08-11T02:02:17;12.86;72.80
71047;SHT31;58703;48.978;8.982;2022-08-11T02:05:16;12.90;72.76
71047;SHT31;58703;48.978;8.982;2022-08-11T02:08:02;12.82;72.55
71047;SHT31;58703;48.978;8.982;2022-08-11T02:10:40;12.65;72.56
71047;SHT31;58703;48.978;8.982;2022-08-11T02:13:33;12.63;74.49
71047;SHT31;58703;48.978;8.982;2022-08-11T02:16:24;12.69;74.30
71047;SHT31;58703;48.978;8.982;2022-08-11T02:19:03;12.69;73.23
71047;SHT31;58703;48.978;8.982;2022-08-11T02:22:15;12.73;73.03
71047;SHT31;58703;48.978;8.982;2022-08-11T02:25:05;12.65;73.73
71047;SHT31;58703;48.978;8.982;2022-08-11T02:27:44;12.49;73.40
71047;SHT31;58703;48.978;8.982;2022-08-11T02:30:15;12.42;74.52
71047;SHT31;58703;48.978;8.982;2022-08-11T02:32:57;12.31;75.43
71047;SHT31;58703;48.978;8.982;2022-08-11T02:41:13;12.18;75.70
71047;SHT31;58703;48.978;8.982;2022-08-11T02:50:11;12.28;75.86
71047;SHT31;58703;48.978;8.982;2022-08-11T02:53:12;12.22;75.43
71047;SHT31;58703;48.978;8.982;2022-08-11T02:55:54;12.25;75.63
71047;SHT31;58703;48.978;8.982;2022-08-11T02:58:50;12.15;76.17
71047;SHT31;58703;48.978;8.982;2022-08-11T03:01:58;12.18;75.44
71047;SHT31;58703;48.978;8.982;2022-08-11T03:04:37;12.20;76.05
71047;SHT31;58703;48.978;8.982;2022-08-11T03:07:20;12.15;75.67
71047;SHT31;58703;48.978;8.982;2022-08-11T03:13:13;12.01;76.78
71047;SHT31;58703;48.978;8.982;2022-08-11T03:19:02;11.83;77.01
71047;SHT31;58703;48.978;8.982;2022-08-11T03:21:39;11.81;77.81
71047;SHT31;58703;48.978;8.982;2022-08-11T03:24:17;11.64;78.67
71047;SHT31;58703;48.978;8.982;2022-08-11T03:27:06;11.57;78.27
71047;SHT31;58703;48.978;8.982;2022-08-11T03:32:18;11.54;78.15
71047;SHT31;58703;48.978;8.982;2022-08-11T03:34:47;11.70;76.96
71047;SHT31;58703;48.978;8.982;2022-08-11T03:37:47;11.63;78.18
71047;SHT31;58703;48.978;8.982;2022-08-11T03:46:14;11.33;79.66
71047;SHT31;58703;48.978;8.982;2022-08-11T03:49:10;11.42;79.01
71047;SHT31;58703;48.978;8.982;2022-08-11T03:54:54;11.40;78.50
71047;SHT31;58703;48.978;8.982;2022-08-11T03:58:03;11.29;79.58
71047;SHT31;58703;48.978;8.982;2022-08-11T04:12:17;11.15;78.87
71047;SHT31;58703;48.978;8.982;2022-08-11T04:32:02;11.39;79.29
71047;SHT31;58703;48.978;8.982;2022-08-11T04:34:34;11.43;78.90
71047;SHT31;58703;48.978;8.982;2022-08-11T04:37:34;11.44;79.28
71047;SHT31;58703;48.978;8.982;2022-08-11T04:49:12;12.01;77.78
71047;SHT31;58703;48.978;8.982;2022-08-11T04:55:44;12.62;75.71
71047;SHT31;58703;48.978;8.982;2022-08-11T04:58:50;13.04;74.90
71047;SHT31;58703;48.978;8.982;2022-08-11T05:01:39;13.06;74.21
71047;SHT31;58703;48.978;8.982;2022-08-11T05:12:53;13.83;71.58
71047;SHT31;58703;48.978;8.982;2022-08-11T05:15:29;14.39;69.77
71047;SHT31;58703;48.978;8.982;2022-08-11T05:18:23;14.44;69.19
71047;SHT31;58703;48.978;8.982;2022-08-11T05:21:09;14.95;68.10
71047;SHT31;58703;48.978;8.982;2022-08-11T05:24:07;15.05;67.41
71047;SHT31;58703;48.978;8.982;2022-08-11T05:26:55;15.18;67.34
71047;SHT31;58703;48.978;8.982;2022-08-11T05:29:45;15.48;66.24
71047;SHT31;58703;48.978;8.982;2022-08-11T05:32:36;15.49;66.29
71047;SHT31;58703;48.978;8.982;2022-08-11T05:35:47;15.52;65.95
71047;SHT31;58703;48.978;8.982;2022-08-11T05:38:21;15.99;65.51
71047;SHT31;58703;48.978;8.982;2022-08-11T05:41:10;16.33;64.13
71047;SHT31;58703;48.978;8.982;2022-08-11T05:43:59;16.39;63.66
71047;SHT31;58703;48.978;8.982;2022-08-11T05:46:44;16.56;63.17
71047;SHT31;58703;48.978;8.982;2022-08-11T05:49:30;17.12;61.19
71047;SHT31;58703;48.978;8.982;2022-08-11T05:52:17;17.53;60.04
71047;SHT31;58703;48.978;8.982;2022-08-11T05:55:04;17.77;59.07
71047;SHT31;58703;48.978;8.982;2022-08-11T05:57:54;17.89;59.04
71047;SHT31;58703;48.978;8.982;2022-08-11T06:00:21;18.30;57.81
71047;SHT31;58703;48.978;8.982;2022-08-11T06:02:56;18.73;56.56
71047;SHT31;58703;48.978;8.982;2022-08-11T06:05:24;18.59;57.04
71047;SHT31;58703;48.978;8.982;2022-08-11T06:07:56;18.59;56.40
71047;SHT31;58703;48.978;8.982;2022-08-11T06:10:36;19.12;54.42
71047;SHT31;58703;48.978;8.982;2022-08-11T06:13:05;18.24;56.83
71047;SHT31;58703;48.978;8.982;2022-08-11T06:15:32;18.55;56.19
71047;SHT31;58703;48.978;8.982;2022-08-11T06:18:00;18.45;56.80
71047;SHT31;58703;48.978;8.982;2022-08-11T06:20:28;19.23;54.28
71047;SHT31;58703;48.978;8.982;2022-08-11T06:23:06;18.89;55.24
71047;SHT31;58703;48.978;8.982;2022-08-11T06:25:34;18.84;55.46
71047;SHT31;58703;48.978;8.982;2022-08-11T06:28:05;19.36;54.58
71047;SHT31;58703;48.978;8.982;2022-08-11T06:30:43;20.21;52.90
71047;SHT31;58703;48.978;8.982;2022-08-11T06:33:16;20.39;52.20
71047;SHT31;58703;48.978;8.982;2022-08-11T06:39:01;19.87;54.26
71047;SHT31;58703;48.978;8.982;2022-08-11T06:46:38;20.72;51.96
71047;SHT31;58703;48.978;8.982;2022-08-11T06:49:06;21.30;50.38
71047;SHT31;58703;48.978;8.982;2022-08-11T06:51:55;21.47;50.30
71047;SHT31;58703;48.978;8.982;2022-08-11T06:54:21;22.05;48.25
71047;SHT31;58703;48.978;8.982;2022-08-11T06:56:48;22.19;48.11
71047;SHT31;58703;48.978;8.982;2022-08-11T06:59:33;22.46;47.47
71047;SHT31;58703;48.978;8.982;2022-08-11T07:02:25;22.88;48.00
71047;SHT31;58703;48.978;8.982;2022-08-11T07:05:07;23.15;46.33
71047;SHT31;58703;48.978;8.982;2022-08-11T07:13:46;23.21;45.24
71047;SHT31;58703;48.978;8.982;2022-08-11T07:16:33;23.06;45.66
71047;SHT31;58703;48.978;8.982;2022-08-11T07:19:03;23.15;45.18
71047;SHT31;58703;48.978;8.982;2022-08-11T07:21:48;23.18;45.47
71047;SHT31;58703;48.978;8.982;2022-08-11T07:24:43;23.55;44.55
71047;SHT31;58703;48.978;8.982;2022-08-11T07:27:43;23.79;43.80
71047;SHT31;58703;48.978;8.982;2022-08-11T07:30:29;23.79;44.15
71047;SHT31;58703;48.978;8.982;2022-08-11T07:32:58;24.08;43.97
71047;SHT31;58703;48.978;8.982;2022-08-11T07:35:35;23.90;43.68
71047;SHT31;58703;48.978;8.982;2022-08-11T07:38:10;23.98;43.70
71047;SHT31;58703;48.978;8.982;2022-08-11T07:40:37;23.76;44.37
71047;SHT31;58703;48.978;8.982;2022-08-11T07:43:04;24.12;45.22
71047;SHT31;58703;48.978;8.982;2022-08-11T07:45:32;24.49;44.25
71047;SHT31;58703;48.978;8.982;2022-08-11T07:48:17;24.34;44.00
71047;SHT31;58703;48.978;8.982;2022-08-11T07:51:02;23.96;44.28
71047;SHT31;58703;48.978;8.982;2022-08-11T07:53:47;24.33;43.86
71047;SHT31;58703;48.978;8.982;2022-08-11T07:56:13;23.82;44.22
71047;SHT31;58703;48.978;8.982;2022-08-11T07:58:40;23.86;43.72
71047;SHT31;58703;48.978;8.982;2022-08-11T08:01:26;24.00;43.45
71047;SHT31;58703;48.978;8.982;2022-08-11T08:04:14;24.02;43.06
71047;SHT31;58703;48.978;8.982;2022-08-11T08:07:00;24.61;43.13
71047;SHT31;58703;48.978;8.982;2022-08-11T08:09:47;24.96;42.41
71047;SHT31;58703;48.978;8.982;2022-08-11T08:12:32;24.88;42.15
71047;SHT31;58703;48.978;8.982;2022-08-11T08:15:16;25.65;41.23
71047;SHT31;58703;48.978;8.982;2022-08-11T08:18:04;25.45;40.91
71047;SHT31;58703;48.978;8.982;2022-08-11T08:20:36;25.72;41.49
71047;SHT31;58703;48.978;8.982;2022-08-11T08:23:03;25.82;40.66
71047;SHT31;58703;48.978;8.982;2022-08-11T08:25:35;25.43;41.03
71047;SHT31;58703;48.978;8.982;2022-08-11T08:28:25;25.46;40.46
71047;SHT31;58703;48.978;8.982;2022-08-11T08:30:50;25.58;40.93
71047;SHT31;58703;48.978;8.982;2022-08-11T08:35:47;25.80;40.33
71047;SHT31;58703;48.978;8.982;2022-08-11T08:38:13;26.10;39.95
71047;SHT31;58703;48.978;8.982;2022-08-11T08:40:42;26.18;40.02
71047;SHT31;58703;48.978;8.982;2022-08-11T08:43:12;26.18;39.59
71047;SHT31;58703;48.978;8.982;2022-08-11T08:45:40;26.33;39.47
71047;SHT31;58703;48.978;8.982;2022-08-11T08:48:17;26.78;38.98
71047;SHT31;58703;48.978;8.982;2022-08-11T08:51:08;26.17;39.89
71047;SHT31;58703;48.978;8.982;2022-08-11T08:54:20;26.59;38.80
71047;SHT31;58703;48.978;8.982;2022-08-11T08:56:45;26.52;39.12
71047;SHT31;58703;48.978;8.982;2022-08-11T08:59:14;27.03;38.32
71047;SHT31;58703;48.978;8.982;2022-08-11T09:01:44;26.96;38.31
71047;SHT31;58703;48.978;8.982;2022-08-11T09:04:12;27.91;37.34
71047;SHT31;58703;48.978;8.982;2022-08-11T09:06:39;27.57;37.64
71047;SHT31;58703;48.978;8.982;2022-08-11T09:09:06;27.91;36.42
71047;SHT31;58703;48.978;8.982;2022-08-11T09:11:37;27.97;36.91
71047;SHT31;58703;48.978;8.982;2022-08-11T09:14:23;27.57;37.62
71047;SHT31;58703;48.978;8.982;2022-08-11T09:16:49;27.71;36.52
71047;SHT31;58703;48.978;8.982;2022-08-11T09:19:17;27.77;33.97
71047;SHT31;58703;48.978;8.982;2022-08-11T09:21:46;27.80;34.25
71047;SHT31;58703;48.978;8.982;2022-08-11T09:24:35;27.84;33.94
71047;SHT31;58703;48.978;8.982;2022-08-11T09:27:20;27.66;33.97
71047;SHT31;58703;48.978;8.982;2022-08-11T09:29:47;27.69;33.92
71047;SHT31;58703;48.978;8.982;2022-08-11T09:32:13;27.89;33.69
71047;SHT31;58703;48.978;8.982;2022-08-11T09:34:40;27.52;33.49
71047;SHT31;58703;48.978;8.982;2022-08-11T09:37:09;27.45;33.70
71047;SHT31;58703;48.978;8.982;2022-08-11T09:39:57;27.87;32.60
71047;SHT31;58703;48.978;8.982;2022-08-11T09:42:43;27.91;32.75
71047;SHT31;58703;48.978;8.982;2022-08-11T09:45:44;27.77;32.50
71047;SHT31;58703;48.978;8.982;2022-08-11T09:48:11;27.49;33.05
71047;SHT31;58703;48.978;8.982;2022-08-11T09:50:39;27.42;33.40
71047;SHT31;58703;48.978;8.982;2022-08-11T09:53:05;27.53;34.05
71047;SHT31;58703;48.978;8.982;2022-08-11T09:55:32;28.37;33.20
71047;SHT31;58703;48.978;8.982;2022-08-11T09:58:00;28.00;33.72
71047;SHT31;58703;48.978;8.982;2022-08-11T10:00:41;27.86;33.53
71047;SHT31;58703;48.978;8.982;2022-08-11T10:03:12;27.84;32.78
71047;SHT31;58703;48.978;8.982;2022-08-11T10:05:45;28.04;32.72
71047;SHT31;58703;48.978;8.982;2022-08-11T10:08:34;27.96;32.29
71047;SHT31;58703;48.978;8.982;2022-08-11T10:11:02;27.96;31.85
71047;SHT31;58703;48.978;8.982;2022-08-11T10:13:32;27.70;31.95
71047;SHT31;58703;48.978;8.982;2022-08-11T10:16:23;27.66;32.24
71047;SHT31;58703;48.978;8.982;2022-08-11T10:18:54;28.11;32.17
71047;SHT31;58703;48.978;8.982;2022-08-11T10:21:41;28.79;31.44
71047;SHT31;58703;48.978;8.982;2022-08-11T10:24:09;29.36;30.50
71047;SHT31;58703;48.978;8.982;2022-08-11T10:26:56;29.06;30.22
71047;SHT31;58703;48.978;8.982;2022-08-11T10:29:40;28.86;30.41
71047;SHT31;58703;48.978;8.982;2022-08-11T10:32:37;28.88;29.95
71047;SHT31;58703;48.978;8.982;2022-08-11T10:35:26;28.88;30.22
71047;SHT31;58703;48.978;8.982;2022-08-11T10:37:52;29.15;30.66
71047;SHT31;58703;48.978;8.982;2022-08-11T10:40:21;29.98;29.61
71047;SHT31;58703;48.978;8.982;2022-08-11T10:42:58;28.72;30.47
71047;SHT31;58703;48.978;8.982;2022-08-11T10:45:36;28.86;31.29
71047;SHT31;58703;48.978;8.982;2022-08-11T10:48:24;29.31;29.45
71047;SHT31;58703;48.978;8.982;2022-08-11T10:50:53;29.10;30.42
71047;SHT31;58703;48.978;8.982;2022-08-11T10:53:44;29.17;30.09
71047;SHT31;58703;48.978;8.982;2022-08-11T10:56:35;29.95;28.98
71047;SHT31;58703;48.978;8.982;2022-08-11T10:59:25;29.26;30.05
71047;SHT31;58703;48.978;8.982;2022-08-11T11:01:52;29.92;29.27
71047;SHT31;58703;48.978;8.982;2022-08-11T11:04:27;30.29;28.57
71047;SHT31;58703;48.978;8.982;2022-08-11T11:07:03;30.53;28.83
71047;SHT31;58703;48.978;8.982;2022-08-11T11:09:36;29.76;29.01
71047;SHT31;58703;48.978;8.982;2022-08-11T11:12:17;29.78;29.38
71047;SHT31;58703;48.978;8.982;2022-08-11T11:15:05;29.58;29.64
71047;SHT31;58703;48.978;8.982;2022-08-11T11:18:26;29.89;29.44
71047;SHT31;58703;48.978;8.982;2022-08-11T11:21:04;29.89;29.28
71047;SHT31;58703;48.978;8.982;2022-08-11T11:32:57;30.91;27.96
71047;SHT31;58703;48.978;8.982;2022-08-11T11:35:42;30.42;27.98
71047;SHT31;58703;48.978;8.982;2022-08-11T11:38:10;29.31;29.03
71047;SHT31;58703;48.978;8.982;2022-08-11T11:40:37;29.71;28.41
71047;SHT31;58703;48.978;8.982;2022-08-11T11:43:05;30.45;28.18
71047;SHT31;58703;48.978;8.982;2022-08-11T11:45:32;31.09;27.70
71047;SHT31;58703;48.978;8.982;2022-08-11T11:48:02;30.48;28.15
71047;SHT31;58703;48.978;8.982;2022-08-11T11:50:38;31.09;27.60
71047;SHT31;58703;48.978;8.982;2022-08-11T11:53:07;30.14;27.70
71047;SHT31;58703;48.978;8.982;2022-08-11T11:55:36;30.66;27.66
71047;SHT31;58703;48.978;8.982;2022-08-11T11:58:06;30.02;28.05
71047;SHT31;58703;48.978;8.982;2022-08-11T12:00:53;30.70;27.66
71047;SHT31;58703;48.978;8.982;2022-08-11T12:03:39;32.08;26.94
71047;SHT31;58703;48.978;8.982;2022-08-11T12:06:07;32.56;26.42
71047;SHT31;58703;48.978;8.982;2022-08-11T12:08:34;32.74;25.69
71047;SHT31;58703;48.978;8.982;2022-08-11T12:11:02;32.08;25.62
71047;SHT31;58703;48.978;8.982;2022-08-11T12:13:49;31.65;26.03
71047;SHT31;58703;48.978;8.982;2022-08-11T12:16:18;31.62;26.44
71047;SHT31;58703;48.978;8.982;2022-08-11T12:18:46;30.97;26.88
71047;SHT31;58703;48.978;8.982;2022-08-11T12:21:15;31.21;26.33
71047;SHT31;58703;48.978;8.982;2022-08-11T12:23:42;31.33;26.47
71047;SHT31;58703;48.978;8.982;2022-08-11T12:26:27;31.68;26.01
71047;SHT31;58703;48.978;8.982;2022-08-11T12:29:13;30.90;26.03
71047;SHT31;58703;48.978;8.982;2022-08-11T12:31:40;31.31;25.65
71047;SHT31;58703;48.978;8.982;2022-08-11T12:34:09;30.96;25.81
71047;SHT31;58703;48.978;8.982;2022-08-11T12:36:49;30.96;26.11
71047;SHT31;58703;48.978;8.982;2022-08-11T12:39:20;31.24;25.94
71047;SHT31;58703;48.978;8.982;2022-08-11T12:42:09;31.01;26.15
71047;SHT31;58703;48.978;8.982;2022-08-11T12:44:55;31.93;26.07
71047;SHT31;58703;48.978;8.982;2022-08-11T12:47:43;31.68;25.65
71047;SHT31;58703;48.978;8.982;2022-08-11T12:50:41;31.64;25.35
71047;SHT31;58703;48.978;8.982;2022-08-11T12:53:30;31.62;25.18
71047;SHT31;58703;48.978;8.982;2022-08-11T12:56:02;31.51;25.74
71047;SHT31;58703;48.978;8.982;2022-08-11T12:58:48;31.84;25.48
71047;SHT31;58703;48.978;8.982;2022-08-11T13:01:16;32.76;24.60
71047;SHT31;58703;48.978;8.982;2022-08-11T13:04:01;32.49;24.71
71047;SHT31;58703;48.978;8.982;2022-08-11T13:06:46;32.15;24.97
71047;SHT31;58703;48.978;8.982;2022-08-11T13:09:12;32.28;24.11
71047;SHT31;58703;48.978;8.982;2022-08-11T13:11:39;32.48;24.18
71047;SHT31;58703;48.978;8.982;2022-08-11T13:14:26;32.40;24.36
71047;SHT31;58703;48.978;8.982;2022-08-11T13:16:53;32.12;24.64
71047;SHT31;58703;48.978;8.982;2022-08-11T13:19:40;33.28;24.29
71047;SHT31;58703;48.978;8.982;2022-08-11T13:22:07;33.00;24.02
71047;SHT31;58703;48.978;8.982;2022-08-11T13:24:34;33.47;23.85
71047;SHT31;58703;48.978;8.982;2022-08-11T13:27:00;32.97;23.04
71047;SHT31;58703;48.978;8.982;2022-08-11T13:29:28;33.24;23.23
71047;SHT31;58703;48.978;8.982;2022-08-11T13:31:55;33.62;22.43
71047;SHT31;58703;48.978;8.982;2022-08-11T13:34:23;32.77;23.49
71047;SHT31;58703;48.978;8.982;2022-08-11T13:36:53;34.19;22.60
71047;SHT31;58703;48.978;8.982;2022-08-11T13:39:25;34.15;22.84
71047;SHT31;58703;48.978;8.982;2022-08-11T13:41:56;32.15;24.08
71047;SHT31;58703;48.978;8.982;2022-08-11T13:44:24;33.41;23.07
71047;SHT31;58703;48.978;8.982;2022-08-11T13:46:53;34.64;22.03
71047;SHT31;58703;48.978;8.982;2022-08-11T13:49:20;33.38;22.55
71047;SHT31;58703;48.978;8.982;2022-08-11T13:51:46;34.80;21.94
71047;SHT31;58703;48.978;8.982;2022-08-11T13:54:17;34.57;21.59
71047;SHT31;58703;48.978;8.982;2022-08-11T13:56:46;34.45;22.15
71047;SHT31;58703;48.978;8.982;2022-08-11T13:59:14;34.39;22.32
71047;SHT31;58703;48.978;8.982;2022-08-11T14:01:48;32.70;22.99
71047;SHT31;58703;48.978;8.982;2022-08-11T14:04:25;32.43;23.29
71047;SHT31;58703;48.978;8.982;2022-08-11T14:06:53;33.47;22.66
71047;SHT31;58703;48.978;8.982;2022-08-11T14:09:22;33.96;22.05
71047;SHT31;58703;48.978;8.982;2022-08-11T14:11:49;34.01;22.48
71047;SHT31;58703;48.978;8.982;2022-08-11T14:14:34;33.92;22.18
71047;SHT31;58703;48.978;8.982;2022-08-11T14:17:05;34.17;22.31
71047;SHT31;58703;48.978;8.982;2022-08-11T14:19:39;34.55;21.52
71047;SHT31;58703;48.978;8.982;2022-08-11T14:22:05;34.20;21.88
71047;SHT31;58703;48.978;8.982;2022-08-11T14:24:33;35.06;21.39
71047;SHT31;58703;48.978;8.982;2022-08-11T14:26:59;34.10;21.67
71047;SHT31;58703;48.978;8.982;2022-08-11T14:29:27;33.88;22.12
71047;SHT31;58703;48.978;8.982;2022-08-11T14:31:59;33.40;22.66
71047;SHT31;58703;48.978;8.982;2022-08-11T14:34:27;34.12;21.94
71047;SHT31;58703;48.978;8.982;2022-08-11T14:37:07;34.35;21.80
71047;SHT31;58703;48.978;8.982;2022-08-11T14:39:51;33.33;22.27
71047;SHT31;58703;48.978;8.982;2022-08-11T14:42:19;34.96;21.26
71047;SHT31;58703;48.978;8.982;2022-08-11T14:45:14;34.66;21.31
71047;SHT31;58703;48.978;8.982;2022-08-11T14:48:02;34.31;21.49
71047;SHT31;58703;48.978;8.982;2022-08-11T14:50:31;35.24;20.88
71047;SHT31;58703;48.978;8.982;2022-08-11T14:53:01;33.91;21.48
71047;SHT31;58703;48.978;8.982;2022-08-11T14:55:35;36.71;20.01
71047;SHT31;58703;48.978;8.982;2022-08-11T14:58:22;34.74;21.08
71047;SHT31;58703;48.978;8.982;2022-08-11T15:00:51;33.14;22.38
71047;SHT31;58703;48.978;8.982;2022-08-11T15:03:19;34.26;21.40
71047;SHT31;58703;48.978;8.982;2022-08-11T15:05:57;33.37;22.37
71047;SHT31;58703;48.978;8.982;2022-08-11T15:08:35;34.19;21.45
71047;SHT31;58703;48.978;8.982;2022-08-11T15:11:27;33.69;22.28
71047;SHT31;58703;48.978;8.982;2022-08-11T15:14:13;33.13;22.55
71047;SHT31;58703;48.978;8.982;2022-08-11T15:17:00;33.99;21.85
71047;SHT31;58703;48.978;8.982;2022-08-11T15:19:33;33.50;21.96
71047;SHT31;58703;48.978;8.982;2022-08-11T15:22:00;32.26;22.77
71047;SHT31;58703;48.978;8.982;2022-08-11T15:24:45;33.64;21.83
71047;SHT31;58703;48.978;8.982;2022-08-11T15:27:13;33.72;21.68
71047;SHT31;58703;48.978;8.982;2022-08-11T15:30:01;32.86;22.20
71047;SHT31;58703;48.978;8.982;2022-08-11T15:32:46;33.24;22.07
71047;SHT31;58703;48.978;8.982;2022-08-11T15:35:35;34.49;21.04
71047;SHT31;58703;48.978;8.982;2022-08-11T15:38:22;34.67;20.77
71047;SHT31;58703;48.978;8.982;2022-08-11T15:40:50;33.98;21.59
71047;SHT31;58703;48.978;8.982;2022-08-11T15:43:42;34.45;21.04
71047;SHT31;58703;48.978;8.982;2022-08-11T15:46:31;34.12;21.61
71047;SHT31;58703;48.978;8.982;2022-08-11T15:49:15;33.65;21.44
71047;SHT31;58703;48.978;8.982;2022-08-11T15:51:49;32.39;22.37
71047;SHT31;58703;48.978;8.982;2022-08-11T15:54:19;32.64;22.31
71047;SHT31;58703;48.978;8.982;2022-08-11T15:56:48;33.14;22.20
71047;SHT31;58703;48.978;8.982;2022-08-11T15:59:16;33.04;21.81
71047;SHT31;58703;48.978;8.982;2022-08-11T16:02:03;32.87;21.85
71047;SHT31;58703;48.978;8.982;2022-08-11T16:04:49;33.44;21.81
71047;SHT31;58703;48.978;8.982;2022-08-11T16:07:20;33.78;21.46
71047;SHT31;58703;48.978;8.982;2022-08-11T16:10:12;33.50;21.76
71047;SHT31;58703;48.978;8.982;2022-08-11T16:12:51;33.04;22.01
71047;SHT31;58703;48.978;8.982;2022-08-11T16:15:32;33.02;22.16
71047;SHT31;58703;48.978;8.982;2022-08-11T16:18:22;32.39;22.64
71047;SHT31;58703;48.978;8.982;2022-08-11T16:20:50;32.74;22.66
71047;SHT31;58703;48.978;8.982;2022-08-11T16:23:20;33.14;22.26
71047;SHT31;58703;48.978;8.982;2022-08-11T16:25:50;33.23;22.23
71047;SHT31;58703;48.978;8.982;2022-08-11T16:28:19;33.58;21.94
71047;SHT31;58703;48.978;8.982;2022-08-11T16:30:47;32.57;23.35
71047;SHT31;58703;48.978;8.982;2022-08-11T16:33:14;32.82;23.23
71047;SHT31;58703;48.978;8.982;2022-08-11T16:35:40;33.17;23.25
71047;SHT31;58703;48.978;8.982;2022-08-11T16:38:27;33.04;23.02
71047;SHT31;58703;48.978;8.982;2022-08-11T16:41:03;32.84;23.51
71047;SHT31;58703;48.978;8.982;2022-08-11T16:43:31;31.54;24.06
71047;SHT31;58703;48.978;8.982;2022-08-11T16:46:18;32.04;23.64
71047;SHT31;58703;48.978;8.982;2022-08-11T16:49:06;31.57;24.08
71047;SHT31;58703;48.978;8.982;2022-08-11T16:51:33;32.02;23.82
71047;SHT31;58703;48.978;8.982;2022-08-11T16:53:58;32.59;23.39
71047;SHT31;58703;48.978;8.982;2022-08-11T16:56:29;32.18;23.50
71047;SHT31;58703;48.978;8.982;2022-08-11T16:58:56;32.29;23.38
71047;SHT31;58703;48.978;8.982;2022-08-11T17:01:46;32.42;23.30
71047;SHT31;58703;48.978;8.982;2022-08-11T17:04:27;31.81;23.84
71047;SHT31;58703;48.978;8.982;2022-08-11T17:07:15;31.09;24.65
71047;SHT31;58703;48.978;8.982;2022-08-11T17:10:04;30.83;24.73
71047;SHT31;58703;48.978;8.982;2022-08-11T17:12:50;31.16;24.75
71047;SHT31;58703;48.978;8.982;2022-08-11T17:15:39;30.83;24.87
71047;SHT31;58703;48.978;8.982;2022-08-11T17:18:25;30.65;25.19
71047;SHT31;58703;48.978;8.982;2022-08-11T17:21:14;30.58;25.28
71047;SHT31;58703;48.978;8.982;2022-08-11T17:23:44;30.28;25.64
71047;SHT31;58703;48.978;8.982;2022-08-11T17:26:14;30.05;25.92
71047;SHT31;58703;48.978;8.982;2022-08-11T17:28:41;30.14;25.95
71047;SHT31;58703;48.978;8.982;2022-08-11T17:31:09;30.04;25.95
71047;SHT31;58703;48.978;8.982;2022-08-11T17:33:54;29.63;26.60
71047;SHT31;58703;48.978;8.982;2022-08-11T17:36:40;29.33;26.95
71047;SHT31;58703;48.978;8.982;2022-08-11T17:39:10;29.33;27.18
71047;SHT31;58703;48.978;8.982;2022-08-11T17:41:38;29.07;27.66
71047;SHT31;58703;48.978;8.982;2022-08-11T17:44:25;28.78;27.85
71047;SHT31;58703;48.978;8.982;2022-08-11T17:47:11;28.62;28.08
71047;SHT31;58703;48.978;8.982;2022-08-11T17:49:56;28.51;28.17
71047;SHT31;58703;48.978;8.982;2022-08-11T17:52:23;28.34;28.45
71047;SHT31;58703;48.978;8.982;2022-08-11T17:55:08;28.20;28.90
71047;SHT31;58703;48.978;8.982;2022-08-11T17:57:53;28.04;29.21
71047;SHT31;58703;48.978;8.982;2022-08-11T18:00:38;27.93;29.57
71047;SHT31;58703;48.978;8.982;2022-08-11T18:03:04;27.79;29.75
71047;SHT31;58703;48.978;8.982;2022-08-11T18:05:50;27.64;30.04
71047;SHT31;58703;48.978;8.982;2022-08-11T18:08:18;27.63;29.79
71047;SHT31;58703;48.978;8.982;2022-08-11T18:11:03;27.54;30.13
71047;SHT31;58703;48.978;8.982;2022-08-11T18:13:48;27.40;30.18
71047;SHT31;58703;48.978;8.982;2022-08-11T18:16:32;27.25;30.65
71047;SHT31;58703;48.978;8.982;2022-08-11T18:19:17;27.02;31.05
71047;SHT31;58703;48.978;8.982;2022-08-11T18:22:25;26.92;30.99
71047;SHT31;58703;48.978;8.982;2022-08-11T18:25:19;26.85;31.01
71047;SHT31;58703;48.978;8.982;2022-08-11T18:28:06;26.77;31.13
71047;SHT31;58703;48.978;8.982;2022-08-11T18:30:51;26.64;31.23
71047;SHT31;58703;48.978;8.982;2022-08-11T18:33:42;26.48;31.36
71047;SHT31;58703;48.978;8.982;2022-08-11T18:36:30;26.34;31.62
71047;SHT31;58703;48.978;8.982;2022-08-11T18:39:19;26.17;32.00
71047;SHT31;58703;48.978;8.982;2022-08-11T18:42:14;26.07;31.95
71047;SHT31;58703;48.978;8.982;2022-08-11T18:45:02;26.06;31.79
71047;SHT31;58703;48.978;8.982;2022-08-11T18:47:49;25.97;31.93
71047;SHT31;58703;48.978;8.982;2022-08-11T18:50:34;25.79;32.34
71047;SHT31;58703;48.978;8.982;2022-08-11T18:53:19;25.50;32.70
71047;SHT31;58703;48.978;8.982;2022-08-11T18:56:05;25.21;33.38
71047;SHT31;58703;48.978;8.982;2022-08-11T18:58:50;24.84;33.90
71047;SHT31;58703;48.978;8.982;2022-08-11T19:01:36;24.65;34.49
71047;SHT31;58703;48.978;8.982;2022-08-11T19:04:22;24.80;33.88
71047;SHT31;58703;48.978;8.982;2022-08-11T19:07:07;24.73;34.15